createdAt,value
2018-07-22T00:00:42.632Z,8.75
2018-07-22T00:03:10.700Z,7.70
2018-07-22T00:05:38.756Z,8.50
2018-07-22T00:08:06.821Z,9.05
2018-07-22T00:10:34.885Z,9.55
2018-07-22T00:13:02.948Z,8.53
2018-07-22T00:15:31.016Z,8.90
2018-07-22T00:17:59.084Z,8.40
2018-07-22T00:20:27.169Z,9.03
2018-07-22T00:22:55.235Z,8.83
2018-07-22T00:25:23.296Z,9.40
2018-07-22T00:27:51.360Z,9.25
2018-07-22T00:30:19.421Z,8.35
2018-07-22T00:32:47.480Z,7.95
2018-07-22T00:35:15.544Z,9.08
2018-07-22T00:37:43.651Z,9.78
2018-07-22T00:40:12.400Z,9.38
2018-07-22T00:42:40.488Z,9.55
2018-07-22T00:45:10.925Z,9.43
2018-07-22T00:47:38.996Z,10.13
2018-07-22T00:50:07.084Z,9.50
2018-07-22T00:52:35.188Z,10.00
2018-07-22T00:55:03.481Z,9.08
2018-07-22T00:57:31.770Z,10.60
2018-07-22T00:59:59.913Z,10.58
2018-07-22T01:02:27.903Z,10.55
2018-07-22T01:04:56.001Z,10.40
2018-07-22T01:07:24.097Z,9.45
2018-07-22T01:09:52.160Z,9.83
2018-07-22T01:12:20.480Z,10.40
2018-07-22T01:14:48.576Z,9.95
2018-07-22T01:17:16.625Z,9.50
2018-07-22T01:19:44.673Z,9.35
2018-07-22T01:22:12.717Z,8.73
2018-07-22T01:24:40.760Z,8.83
2018-07-22T01:27:08.803Z,9.00
2018-07-22T01:29:36.845Z,9.23
2018-07-22T01:32:04.887Z,7.85
2018-07-22T01:34:32.928Z,7.95
2018-07-22T01:37:01.125Z,8.60
2018-07-22T01:39:29.160Z,7.85
2018-07-22T01:41:57.261Z,8.18
2018-07-22T01:44:25.296Z,8.30
2018-07-22T01:46:53.340Z,9.43
2018-07-22T01:49:21.377Z,9.10
2018-07-22T01:51:49.412Z,9.35
2018-07-22T01:54:17.460Z,9.45
2018-07-22T01:56:45.496Z,8.80
2018-07-22T01:59:13.540Z,8.83
2018-07-22T02:01:41.631Z,8.78
2018-07-22T02:04:09.628Z,8.55
2018-07-22T02:06:37.668Z,7.90
2018-07-22T02:09:07.205Z,7.90
2018-07-22T02:11:35.241Z,9.05
2018-07-22T02:14:03.293Z,7.95
2018-07-22T02:16:31.332Z,7.65
2018-07-22T02:18:59.388Z,8.10
2018-07-22T02:21:27.426Z,8.13
2018-07-22T02:23:55.469Z,9.75
2018-07-22T02:26:23.501Z,6.92
2018-07-22T02:28:51.544Z,8.00
2018-07-22T02:31:19.581Z,7.70
2018-07-22T02:33:47.624Z,7.70
2018-07-22T02:36:15.660Z,8.48
2018-07-22T02:38:43.714Z,8.78
2018-07-22T02:41:11.741Z,9.20
2018-07-22T02:43:39.788Z,11.05
2018-07-22T02:46:07.829Z,9.75
2018-07-22T02:48:35.945Z,9.08
2018-07-22T02:51:03.979Z,9.65
2018-07-22T02:53:32.021Z,9.95
2018-07-22T02:56:00.061Z,9.40
2018-07-22T02:58:28.106Z,9.20
2018-07-22T03:00:56.141Z,8.43
2018-07-22T03:03:24.194Z,9.70
2018-07-22T03:05:52.219Z,9.60
2018-07-22T03:08:20.269Z,9.10
2018-07-22T03:10:48.316Z,9.83
2018-07-22T03:13:16.361Z,9.75
2018-07-22T03:15:44.400Z,9.23
2018-07-22T03:18:12.453Z,8.83
2018-07-22T03:20:40.504Z,9.23
2018-07-22T03:23:08.548Z,8.55
2018-07-22T03:25:36.584Z,9.55
2018-07-22T03:28:05.177Z,9.05
2018-07-22T03:30:33.216Z,8.15
2018-07-22T03:33:01.266Z,8.93
2018-07-22T03:35:29.324Z,9.25
2018-07-22T03:37:57.383Z,10.23
2018-07-22T03:40:25.420Z,9.58
2018-07-22T03:42:53.475Z,11.28
2018-07-22T03:45:21.512Z,11.33
2018-07-22T03:47:49.564Z,9.63
2018-07-22T03:50:17.616Z,10.55
2018-07-22T03:52:45.772Z,8.25
2018-07-22T03:55:13.825Z,8.90
2018-07-22T03:57:41.856Z,9.55
2018-07-22T04:00:09.928Z,9.73
2018-07-22T04:02:37.969Z,10.28
2018-07-22T04:05:06.415Z,10.23
2018-07-22T04:07:34.455Z,11.08
2018-07-22T04:10:02.500Z,10.98
2018-07-22T04:12:30.760Z,10.45
2018-07-22T04:14:58.803Z,8.85
2018-07-22T04:17:26.841Z,8.63
2018-07-22T04:19:54.910Z,8.93
2018-07-22T04:22:22.940Z,8.95
2018-07-22T04:24:50.989Z,9.75
2018-07-22T04:27:19.030Z,9.90
2018-07-22T04:29:47.071Z,9.83
2018-07-22T04:32:15.119Z,9.75
2018-07-22T04:34:43.163Z,10.20
2018-07-22T04:37:11.212Z,10.10
2018-07-22T04:39:39.260Z,9.43
2018-07-22T04:42:07.312Z,11.50
2018-07-22T04:44:35.364Z,10.55
2018-07-22T04:47:03.432Z,10.25
2018-07-22T04:49:31.488Z,11.85
2018-07-22T04:51:59.532Z,12.25
2018-07-22T04:54:27.576Z,13.32
2018-07-22T04:56:55.615Z,11.40
2018-07-22T04:59:23.659Z,9.95
2018-07-22T05:01:51.708Z,11.40
2018-07-22T05:04:19.760Z,12.15
2018-07-22T05:06:47.804Z,12.37
2018-07-22T05:09:15.860Z,12.00
2018-07-22T05:11:43.932Z,11.93
2018-07-22T05:14:11.980Z,11.63
2018-07-22T05:16:40.016Z,11.00
2018-07-22T05:19:08.240Z,12.00
2018-07-22T05:21:36.312Z,11.10
2018-07-22T05:24:04.512Z,12.88
2018-07-22T05:26:32.587Z,10.90
2018-07-22T05:29:00.652Z,11.18
2018-07-22T05:31:28.716Z,11.55
2018-07-22T05:33:56.815Z,11.57
2018-07-22T05:36:24.869Z,11.28
2018-07-22T05:38:52.931Z,12.58
2018-07-22T05:41:20.994Z,11.80
2018-07-22T05:43:49.060Z,11.40
2018-07-22T05:46:17.328Z,10.78
2018-07-22T05:48:45.403Z,11.48
2018-07-22T05:51:13.468Z,10.58
2018-07-22T05:53:41.532Z,11.50
2018-07-22T05:56:09.608Z,10.10
2018-07-22T05:58:37.754Z,9.85
2018-07-22T06:01:05.980Z,10.53
2018-07-22T06:03:34.251Z,10.10
2018-07-22T06:06:02.315Z,10.03
2018-07-22T06:08:30.377Z,10.63
2018-07-22T06:10:58.441Z,10.35
2018-07-22T06:13:26.500Z,10.15
2018-07-22T06:15:54.574Z,11.30
2018-07-22T06:18:22.629Z,10.32
2018-07-22T06:20:50.688Z,9.18
2018-07-22T06:23:18.753Z,11.10
2018-07-22T06:25:46.776Z,9.55
2018-07-22T06:28:14.816Z,11.48
2018-07-22T06:30:42.851Z,10.50
2018-07-22T06:33:10.906Z,11.88
2018-07-22T06:35:38.968Z,10.45
2018-07-22T06:38:07.012Z,10.98
2018-07-22T06:40:35.060Z,11.05
2018-07-22T06:43:03.109Z,10.18
2018-07-22T06:45:31.248Z,10.43
2018-07-22T06:47:59.284Z,13.10
2018-07-22T06:50:27.341Z,10.95
2018-07-22T06:52:55.384Z,10.98
2018-07-22T06:55:23.440Z,11.25
2018-07-22T06:57:51.527Z,11.90
2018-07-22T07:00:19.665Z,12.70
2018-07-22T07:02:47.708Z,13.50
2018-07-22T07:05:15.757Z,12.18
2018-07-22T07:07:43.797Z,11.95
2018-07-22T07:10:11.856Z,14.35
2018-07-22T07:12:39.900Z,14.58
2018-07-22T07:15:07.999Z,15.88
2018-07-22T07:17:36.043Z,14.20
2018-07-22T07:20:04.291Z,18.55
2018-07-22T07:22:32.332Z,16.25
2018-07-22T07:25:00.259Z,17.50
2018-07-22T07:27:28.296Z,17.57
2018-07-22T07:30:03.284Z,17.30
2018-07-22T07:32:31.324Z,15.43
2018-07-22T07:34:59.372Z,13.30
2018-07-22T07:37:27.432Z,13.30
2018-07-22T07:39:55.484Z,14.85
2018-07-22T07:42:23.588Z,14.35
2018-07-22T07:44:51.788Z,14.55
2018-07-22T07:47:19.836Z,13.90
2018-07-22T07:49:47.884Z,14.13
2018-07-22T07:52:15.928Z,12.88
2018-07-22T07:54:44.012Z,13.18
2018-07-22T07:57:12.297Z,14.03
2018-07-22T07:59:40.328Z,13.50
2018-07-22T08:02:08.368Z,12.98
2018-07-22T08:04:36.411Z,14.33
2018-07-22T08:07:04.472Z,14.05
2018-07-22T08:09:32.517Z,12.75
2018-07-22T08:12:00.563Z,13.30
2018-07-22T08:14:28.596Z,14.15
2018-07-22T08:16:56.640Z,14.25
2018-07-22T08:19:24.576Z,14.35
2018-07-22T08:21:52.812Z,13.38
2018-07-22T08:24:20.704Z,15.05
2018-07-22T08:26:48.777Z,14.60
2018-07-22T08:29:20.077Z,16.40
2018-07-22T08:31:48.268Z,15.55
2018-07-22T08:34:16.761Z,14.00
2018-07-22T08:36:45.164Z,12.85
2018-07-22T08:39:13.244Z,13.95
2018-07-22T08:41:41.397Z,13.68
2018-07-22T08:44:09.916Z,12.23
2018-07-22T08:46:38.620Z,13.40
2018-07-22T08:49:06.905Z,12.65
2018-07-22T08:51:34.972Z,12.75
2018-07-22T08:54:03.281Z,14.55
2018-07-22T08:56:31.884Z,12.07
2018-07-22T08:59:00.005Z,12.03
2018-07-22T09:01:28.559Z,12.20
2018-07-22T09:03:56.632Z,14.03
2018-07-22T09:06:25.457Z,11.00
2018-07-22T09:08:53.677Z,12.93
2018-07-22T09:11:21.923Z,13.03
2018-07-22T09:13:49.984Z,11.03
2018-07-22T09:16:18.057Z,11.97
2018-07-22T09:18:46.137Z,12.30
2018-07-22T09:21:14.204Z,11.90
2018-07-22T09:23:42.271Z,12.07
2018-07-22T09:26:10.332Z,12.70
2018-07-22T09:28:38.400Z,12.63
2018-07-22T09:31:07.224Z,13.53
2018-07-22T09:33:35.503Z,11.75
2018-07-22T09:36:03.698Z,13.05
2018-07-22T09:38:31.653Z,12.65
2018-07-22T09:40:59.724Z,12.40
2018-07-22T09:43:28.352Z,14.45
2018-07-22T09:45:56.744Z,12.70
2018-07-22T09:48:25.239Z,14.38
2018-07-22T09:50:53.321Z,12.55
2018-07-22T09:53:21.392Z,13.75
2018-07-22T09:55:50.009Z,12.25
2018-07-22T09:58:18.197Z,13.13
2018-07-22T10:00:52.401Z,13.43
2018-07-22T10:03:21.220Z,13.65
2018-07-22T10:05:49.300Z,12.98
2018-07-22T10:08:17.364Z,14.45
2018-07-22T10:10:45.445Z,13.15
2018-07-22T10:13:13.508Z,14.60
2018-07-22T10:15:41.568Z,13.55
2018-07-22T10:18:09.640Z,15.15
2018-07-22T10:20:37.688Z,13.93
2018-07-22T10:23:05.746Z,14.93
2018-07-22T10:25:33.875Z,15.05
2018-07-22T10:28:01.928Z,14.25
2018-07-22T10:30:29.968Z,13.60
2018-07-22T10:32:58.020Z,14.00
2018-07-22T10:35:26.061Z,13.95
2018-07-22T10:37:54.136Z,13.80
2018-07-22T10:40:22.192Z,12.75
2018-07-22T10:42:50.237Z,13.72
2018-07-22T10:45:18.271Z,12.68
2018-07-22T10:47:46.333Z,13.68
2018-07-22T10:50:14.365Z,13.22
2018-07-22T10:52:42.412Z,12.30
2018-07-22T10:55:10.456Z,12.80
2018-07-22T10:57:38.512Z,12.50
2018-07-22T11:00:07.112Z,12.30
2018-07-22T11:02:35.172Z,11.65
2018-07-22T11:05:03.256Z,11.40
2018-07-22T11:07:31.376Z,11.90
2018-07-22T11:09:59.457Z,11.20
2018-07-22T11:12:27.504Z,11.10
2018-07-22T11:14:55.599Z,11.38
2018-07-22T11:17:23.608Z,10.98
2018-07-22T11:19:51.685Z,10.82
2018-07-22T11:22:19.768Z,11.45
2018-07-22T11:24:47.828Z,11.70
2018-07-22T11:27:15.909Z,12.23
2018-07-22T11:29:44.072Z,11.68
2018-07-22T11:32:12.132Z,11.35
2018-07-22T11:34:40.356Z,11.50
2018-07-22T11:37:08.424Z,11.60
2018-07-22T11:39:36.483Z,11.88
2018-07-22T11:42:04.564Z,11.90
2018-07-22T11:44:32.594Z,12.10
2018-07-22T11:47:00.668Z,11.00
2018-07-22T11:49:28.725Z,11.10
2018-07-22T11:51:56.797Z,11.10
2018-07-22T11:54:24.865Z,11.00
2018-07-22T11:56:52.927Z,11.45
2018-07-22T11:59:21.036Z,11.53
2018-07-22T12:01:49.101Z,11.38
2018-07-22T12:04:17.176Z,10.50
2018-07-22T12:06:45.244Z,10.03
2018-07-22T12:09:13.440Z,10.40
2018-07-22T12:11:41.861Z,11.00
2018-07-22T12:14:09.936Z,11.15
2018-07-22T12:16:38.017Z,11.90
2018-07-22T12:19:06.188Z,12.07
2018-07-22T12:21:34.257Z,12.00
2018-07-22T12:24:02.337Z,13.10
2018-07-22T12:26:30.400Z,13.40
2018-07-22T12:28:58.482Z,14.43
2018-07-22T12:31:26.561Z,15.60
2018-07-22T12:33:54.621Z,18.40
2018-07-22T12:36:22.679Z,15.03
2018-07-22T12:38:50.744Z,15.50
2018-07-22T12:41:18.808Z,15.28
2018-07-22T12:43:46.888Z,15.60
2018-07-22T12:46:14.737Z,15.32
2018-07-22T12:48:42.815Z,16.62
2018-07-22T12:51:10.876Z,15.08
2018-07-22T12:53:38.992Z,14.93
2018-07-22T12:56:07.016Z,16.62
2018-07-22T12:58:35.088Z,16.37
2018-07-22T13:01:03.156Z,14.65
2018-07-22T13:03:31.227Z,17.12
2018-07-22T13:05:59.305Z,15.83
2018-07-22T13:08:27.364Z,16.82
2018-07-22T13:10:55.433Z,17.00
2018-07-22T13:13:23.513Z,17.57
2018-07-22T13:15:51.351Z,16.62
2018-07-22T13:18:19.443Z,21.12
2018-07-22T13:20:47.536Z,17.62
2018-07-22T13:23:15.664Z,20.30
2018-07-22T13:25:43.729Z,20.57
2018-07-22T13:28:11.800Z,21.20
2018-07-22T13:30:39.892Z,21.45
2018-07-22T13:33:08.009Z,21.05
2018-07-22T13:35:36.088Z,20.85
2018-07-22T13:38:04.184Z,23.40
2018-07-22T13:40:32.240Z,23.22
2018-07-22T13:43:00.349Z,21.62
2018-07-22T13:45:28.507Z,22.40
2018-07-22T13:47:56.611Z,23.73
2018-07-22T13:50:24.648Z,24.43
2018-07-22T13:52:52.753Z,23.25
2018-07-22T13:55:20.840Z,25.37
2018-07-22T13:57:48.911Z,23.15
2018-07-22T14:00:17.000Z,23.47
2018-07-22T14:02:45.072Z,23.20
2018-07-22T14:05:13.136Z,24.52
2018-07-22T14:07:41.200Z,25.57
2018-07-22T14:10:09.252Z,24.60
2018-07-22T14:12:37.336Z,24.67
2018-07-22T14:15:05.556Z,25.50
2018-07-22T14:17:33.644Z,23.47
2018-07-22T14:20:01.736Z,23.12
2018-07-22T14:22:29.816Z,22.40
2018-07-22T14:24:58.017Z,20.48
2018-07-22T14:27:26.024Z,21.65
2018-07-22T14:29:54.084Z,18.20
2018-07-22T14:32:22.160Z,18.92
2018-07-22T14:34:50.225Z,17.27
2018-07-22T14:37:18.279Z,17.62
2018-07-22T14:39:46.357Z,14.68
2018-07-22T14:42:14.420Z,13.55
2018-07-22T14:44:42.501Z,14.53
2018-07-22T14:47:10.593Z,13.58
2018-07-22T14:49:38.639Z,14.80
2018-07-22T14:52:06.704Z,14.40
2018-07-22T14:54:34.779Z,11.65
2018-07-22T14:57:02.840Z,7.97
2018-07-22T14:59:30.891Z,8.63
2018-07-22T15:01:58.953Z,9.25
2018-07-22T15:04:27.013Z,9.50
2018-07-22T15:06:55.079Z,9.15
2018-07-22T15:09:23.135Z,9.60
2018-07-22T15:11:51.288Z,9.30
2018-07-22T15:14:19.332Z,9.75
2018-07-22T15:16:47.397Z,9.10
2018-07-22T15:19:15.519Z,9.15
2018-07-22T15:21:43.612Z,9.25
2018-07-22T15:24:11.678Z,9.80
2018-07-22T15:26:39.732Z,9.65
2018-07-22T15:29:07.995Z,10.00
2018-07-22T15:31:35.990Z,9.53
2018-07-22T15:34:04.280Z,9.58
2018-07-22T15:36:32.353Z,10.48
2018-07-22T15:39:00.420Z,11.53
2018-07-22T15:41:28.492Z,10.58
2018-07-22T15:43:56.568Z,9.90
2018-07-22T15:46:24.695Z,9.73
2018-07-22T15:48:52.840Z,10.78
2018-07-22T15:51:20.927Z,9.80
2018-07-22T15:53:49.000Z,9.70
2018-07-22T15:56:17.093Z,10.98
2018-07-22T15:58:45.156Z,11.55
2018-07-22T16:01:13.256Z,12.65
2018-07-22T16:03:41.284Z,12.00
2018-07-22T16:06:09.432Z,12.60
2018-07-22T16:08:37.532Z,12.45
2018-07-22T16:11:05.592Z,13.43
2018-07-22T16:13:34.525Z,13.28
2018-07-22T16:16:02.576Z,13.32
2018-07-22T16:18:30.672Z,13.20
2018-07-22T16:20:58.717Z,13.55
2018-07-22T16:23:26.776Z,14.47
2018-07-22T16:25:54.816Z,13.10
2018-07-22T16:28:22.857Z,12.73
2018-07-22T16:30:50.912Z,14.10
2018-07-22T16:33:18.957Z,12.20
2018-07-22T16:35:47.012Z,12.98
2018-07-22T16:38:15.044Z,13.30
2018-07-22T16:40:43.092Z,13.20
2018-07-22T16:43:11.132Z,14.03
2018-07-22T16:45:39.223Z,13.68
2018-07-22T16:48:07.277Z,14.40
2018-07-22T16:50:35.308Z,13.85
2018-07-22T16:53:03.344Z,15.85
2018-07-22T16:55:31.279Z,15.45
2018-07-22T16:57:59.320Z,14.87
2018-07-22T17:00:27.369Z,16.67
2018-07-22T17:02:55.444Z,14.18
2018-07-22T17:05:23.497Z,15.40
2018-07-22T17:07:51.528Z,16.48
2018-07-22T17:10:19.585Z,15.83
2018-07-22T17:12:48.076Z,16.12
2018-07-22T17:15:16.148Z,15.80
2018-07-22T17:17:44.192Z,15.35
2018-07-22T17:20:12.247Z,15.40
2018-07-22T17:22:40.296Z,15.85
2018-07-22T17:25:08.352Z,15.83
2018-07-22T17:27:36.479Z,17.30
2018-07-22T17:30:04.948Z,16.65
2018-07-22T17:32:33.007Z,16.82
2018-07-22T17:35:01.044Z,16.75
2018-07-22T17:37:29.224Z,16.20
2018-07-22T17:40:00.592Z,18.00
2018-07-22T17:42:30.412Z,16.52
2018-07-22T17:44:58.467Z,16.55
2018-07-22T17:47:27.612Z,15.90
2018-07-22T17:49:56.311Z,16.35
2018-07-22T17:52:24.348Z,16.40
2018-07-22T17:54:52.424Z,16.93
2018-07-22T17:57:20.480Z,15.30
2018-07-22T17:59:48.733Z,16.25
2018-07-22T18:02:16.752Z,16.57
2018-07-22T18:04:44.808Z,18.67
2018-07-22T18:07:13.000Z,17.35
2018-07-22T18:09:41.048Z,17.70
2018-07-22T18:12:09.111Z,16.60
2018-07-22T18:14:37.140Z,17.42
2018-07-22T18:17:05.375Z,14.93
2018-07-22T18:19:33.462Z,16.00
2018-07-22T18:22:01.521Z,17.60
2018-07-22T18:24:29.588Z,16.23
2018-07-22T18:26:57.661Z,16.27
2018-07-22T18:29:25.727Z,16.17
2018-07-22T18:31:53.780Z,16.97
2018-07-22T18:34:21.857Z,16.90
2018-07-22T18:36:49.975Z,18.15
2018-07-22T18:39:18.018Z,17.77
2018-07-22T18:41:46.096Z,15.20
2018-07-22T18:44:14.163Z,17.15
2018-07-22T18:46:42.225Z,16.57
2018-07-22T18:49:10.285Z,17.40
2018-07-22T18:51:38.355Z,16.20
2018-07-22T18:54:06.611Z,15.68
2018-07-22T18:56:34.684Z,16.40
2018-07-22T18:59:02.896Z,18.02
2018-07-22T19:01:30.980Z,17.40
2018-07-22T19:03:59.042Z,16.65
2018-07-22T19:06:27.113Z,17.62
2018-07-22T19:08:55.184Z,17.02
2018-07-22T19:11:23.276Z,15.50
2018-07-22T19:13:51.331Z,17.17
2018-07-22T19:16:19.833Z,16.85
2018-07-22T19:18:47.888Z,15.63
2018-07-22T19:21:16.101Z,16.17
2018-07-22T19:23:44.204Z,16.10
2018-07-22T19:26:12.297Z,16.25
2018-07-22T19:28:40.364Z,16.55
2018-07-22T19:31:08.425Z,14.40
2018-07-22T19:33:36.278Z,16.37
2018-07-22T19:36:04.380Z,16.67
2018-07-22T19:38:32.444Z,16.40
2018-07-22T19:41:00.650Z,17.40
2018-07-22T19:43:28.728Z,15.53
2018-07-22T19:45:56.796Z,15.65
2018-07-22T19:48:24.852Z,15.65
2018-07-22T19:50:52.928Z,14.68
2018-07-22T19:53:20.992Z,16.55
2018-07-22T19:55:49.048Z,16.45
2018-07-22T19:58:17.117Z,16.90
2018-07-22T20:00:45.208Z,15.43
2018-07-22T20:03:13.247Z,17.35
2018-07-22T20:05:41.308Z,15.75
2018-07-22T20:08:09.375Z,16.17
2018-07-22T20:10:37.435Z,16.57
2018-07-22T20:13:05.528Z,16.02
2018-07-22T20:15:33.632Z,15.68
2018-07-22T20:18:01.684Z,16.12
2018-07-22T20:20:29.796Z,16.35
2018-07-22T20:22:57.841Z,15.13
2018-07-22T20:25:25.884Z,16.57
2018-07-22T20:27:53.964Z,16.02
2018-07-22T20:30:22.017Z,16.60
2018-07-22T20:32:50.061Z,17.07
2018-07-22T20:35:18.119Z,16.17
2018-07-22T20:37:46.172Z,17.90
2018-07-22T20:40:14.208Z,15.98
2018-07-22T20:42:42.252Z,14.87
2018-07-22T20:45:10.325Z,17.25
2018-07-22T20:47:38.360Z,15.75
2018-07-22T20:50:06.413Z,16.37
2018-07-22T20:52:34.452Z,16.87
2018-07-22T20:55:02.483Z,16.37
2018-07-22T20:57:30.531Z,16.35
2018-07-22T20:59:59.434Z,17.40
2018-07-22T21:02:27.479Z,17.25
2018-07-22T21:04:55.516Z,16.02
2018-07-22T21:07:23.568Z,17.37
2018-07-22T21:09:51.613Z,15.95
2018-07-22T21:12:40.255Z,16.32
2018-07-22T21:15:08.371Z,16.25
2018-07-22T21:17:36.582Z,15.38
2018-07-22T21:20:05.125Z,16.75
2018-07-22T21:22:33.179Z,16.27
2018-07-22T21:25:01.284Z,16.50
2018-07-22T21:27:29.348Z,16.40
2018-07-22T21:29:57.717Z,16.05
2018-07-22T21:32:25.952Z,17.35
2018-07-22T21:34:53.996Z,17.45
2018-07-22T21:37:21.959Z,17.45
2018-07-22T21:39:49.999Z,18.05
2018-07-22T21:42:18.089Z,17.82
2018-07-22T21:44:46.132Z,16.77
2018-07-22T21:47:14.176Z,19.75
2018-07-22T21:49:42.217Z,17.57
2018-07-22T21:52:10.289Z,17.25
2018-07-22T21:54:38.324Z,17.62
2018-07-22T21:57:06.377Z,15.98
2018-07-22T21:59:34.420Z,15.70
2018-07-22T22:02:02.465Z,16.20
2018-07-22T22:04:30.504Z,15.03
2018-07-22T22:06:58.566Z,16.77
2018-07-22T22:09:26.636Z,15.32
2018-07-22T22:11:54.689Z,14.68
2018-07-22T22:14:22.876Z,15.85
2018-07-22T22:16:50.923Z,17.30
2018-07-22T22:19:18.972Z,16.30
2018-07-22T22:21:47.021Z,14.87
2018-07-22T22:24:15.062Z,15.75
2018-07-22T22:26:43.111Z,17.05
2018-07-22T22:29:11.387Z,16.55
2018-07-22T22:31:39.594Z,16.45
2018-07-22T22:34:07.868Z,17.12
2018-07-22T22:36:36.372Z,16.77
2018-07-22T22:39:08.141Z,16.60
2018-07-22T22:41:36.220Z,16.10
2018-07-22T22:44:04.269Z,16.67
2018-07-22T22:46:32.320Z,14.60
2018-07-22T22:49:00.361Z,16.65
2018-07-22T22:51:28.509Z,16.50
2018-07-22T22:53:56.541Z,17.37
2018-07-22T22:56:24.587Z,15.95
2018-07-22T22:59:04.369Z,15.08
2018-07-22T23:01:32.428Z,15.10
2018-07-22T23:04:00.480Z,14.85
2018-07-22T23:06:28.545Z,17.60
2018-07-22T23:08:56.576Z,17.30
2018-07-22T23:11:24.616Z,14.75
2018-07-22T23:13:52.670Z,16.02
2018-07-22T23:16:20.713Z,16.93
2018-07-22T23:18:48.764Z,16.32
2018-07-22T23:21:16.836Z,19.95
2018-07-22T23:23:44.880Z,20.05
2018-07-22T23:26:12.962Z,18.02
2018-07-22T23:28:40.972Z,19.12
2018-07-22T23:31:09.008Z,19.55
2018-07-22T23:33:37.061Z,18.37
2018-07-22T23:36:05.104Z,19.57
2018-07-22T23:38:33.152Z,16.50
2018-07-22T23:41:01.200Z,18.15
2018-07-22T23:43:29.248Z,18.25
2018-07-22T23:45:57.288Z,19.77
2018-07-22T23:48:25.341Z,19.40
2018-07-22T23:50:53.376Z,22.13
2018-07-22T23:53:21.427Z,22.73
2018-07-22T23:55:49.497Z,21.95
2018-07-22T23:58:17.552Z,22.55
